sensor_id;sensor_type;location;lat;lon;timestamp;P1;durP1;ratioP1;P2;durP2;ratioP2
71360;SDS011;59166;48.908;1.870;2022-08-19T00:04:24;11.23;;;5.70;;
71360;SDS011;59166;48.908;1.870;2022-08-19T00:09:27;11.10;;;6.07;;
71360;SDS011;59166;48.908;1.870;2022-08-19T00:14:29;11.60;;;6.20;;
71360;SDS011;59166;48.908;1.870;2022-08-19T00:19:31;11.73;;;6.33;;
71360;SDS011;59166;48.908;1.870;2022-08-19T00:24:32;10.75;;;6.20;;
71360;SDS011;59166;48.908;1.870;2022-08-19T00:29:33;11.67;;;6.60;;
71360;SDS011;59166;48.908;1.870;2022-08-19T00:34:35;10.48;;;6.25;;
71360;SDS011;59166;48.908;1.870;2022-08-19T00:39:35;11.70;;;6.23;;
71360;SDS011;59166;48.908;1.870;2022-08-19T00:44:36;11.23;;;6.47;;
71360;SDS011;59166;48.908;1.870;2022-08-19T00:49:41;11.30;;;5.97;;
71360;SDS011;59166;48.908;1.870;2022-08-19T00:54:45;12.05;;;6.68;;
71360;SDS011;59166;48.908;1.870;2022-08-19T00:59:47;11.93;;;6.37;;
71360;SDS011;59166;48.908;1.870;2022-08-19T01:04:54;12.10;;;6.50;;
71360;SDS011;59166;48.908;1.870;2022-08-19T01:09:55;11.77;;;6.53;;
71360;SDS011;59166;48.908;1.870;2022-08-19T01:14:56;12.52;;;6.70;;
71360;SDS011;59166;48.908;1.870;2022-08-19T01:20:00;12.00;;;6.63;;
71360;SDS011;59166;48.908;1.870;2022-08-19T01:25:02;14.88;;;7.07;;
71360;SDS011;59166;48.908;1.870;2022-08-19T01:30:04;13.60;;;6.55;;
71360;SDS011;59166;48.908;1.870;2022-08-19T01:35:06;12.97;;;6.83;;
71360;SDS011;59166;48.908;1.870;2022-08-19T01:40:09;12.15;;;6.88;;
71360;SDS011;59166;48.908;1.870;2022-08-19T01:45:11;12.82;;;7.15;;
71360;SDS011;59166;48.908;1.870;2022-08-19T01:50:12;12.53;;;6.80;;
71360;SDS011;59166;48.908;1.870;2022-08-19T01:55:17;12.40;;;6.97;;
71360;SDS011;59166;48.908;1.870;2022-08-19T02:00:20;12.00;;;6.80;;
71360;SDS011;59166;48.908;1.870;2022-08-19T02:05:22;13.63;;;7.33;;
71360;SDS011;59166;48.908;1.870;2022-08-19T02:10:25;12.73;;;6.97;;
71360;SDS011;59166;48.908;1.870;2022-08-19T02:15:25;14.00;;;7.50;;
71360;SDS011;59166;48.908;1.870;2022-08-19T02:20:26;13.48;;;7.25;;
71360;SDS011;59166;48.908;1.870;2022-08-19T02:25:28;13.53;;;7.60;;
71360;SDS011;59166;48.908;1.870;2022-08-19T02:30:29;12.90;;;7.25;;
71360;SDS011;59166;48.908;1.870;2022-08-19T02:35:30;12.57;;;7.03;;
71360;SDS011;59166;48.908;1.870;2022-08-19T02:40:32;13.10;;;7.38;;
71360;SDS011;59166;48.908;1.870;2022-08-19T02:45:34;14.27;;;7.60;;
71360;SDS011;59166;48.908;1.870;2022-08-19T02:50:37;16.17;;;7.50;;
71360;SDS011;59166;48.908;1.870;2022-08-19T02:55:43;13.63;;;8.07;;
71360;SDS011;59166;48.908;1.870;2022-08-19T03:00:45;14.88;;;8.60;;
71360;SDS011;59166;48.908;1.870;2022-08-19T03:05:47;17.47;;;8.80;;
71360;SDS011;59166;48.908;1.870;2022-08-19T03:10:49;15.65;;;8.77;;
71360;SDS011;59166;48.908;1.870;2022-08-19T03:15:50;14.80;;;8.33;;
71360;SDS011;59166;48.908;1.870;2022-08-19T03:20:51;14.77;;;7.80;;
71360;SDS011;59166;48.908;1.870;2022-08-19T03:25:54;16.63;;;8.50;;
71360;SDS011;59166;48.908;1.870;2022-08-19T03:30:55;15.00;;;7.00;;
71360;SDS011;59166;48.908;1.870;2022-08-19T03:36:04;14.25;;;7.50;;
71360;SDS011;59166;48.908;1.870;2022-08-19T03:41:08;15.43;;;8.38;;
71360;SDS011;59166;48.908;1.870;2022-08-19T03:46:12;15.57;;;7.67;;
71360;SDS011;59166;48.908;1.870;2022-08-19T03:51:15;13.68;;;7.25;;
71360;SDS011;59166;48.908;1.870;2022-08-19T03:56:19;13.77;;;7.55;;
71360;SDS011;59166;48.908;1.870;2022-08-19T04:01:21;13.63;;;6.63;;
71360;SDS011;59166;48.908;1.870;2022-08-19T04:06:24;13.93;;;7.05;;
71360;SDS011;59166;48.908;1.870;2022-08-19T04:11:28;13.32;;;6.90;;
71360;SDS011;59166;48.908;1.870;2022-08-19T04:16:31;15.40;;;7.10;;
71360;SDS011;59166;48.908;1.870;2022-08-19T04:21:32;11.70;;;6.33;;
71360;SDS011;59166;48.908;1.870;2022-08-19T04:26:35;11.63;;;5.27;;
71360;SDS011;59166;48.908;1.870;2022-08-19T04:31:36;11.13;;;5.40;;
71360;SDS011;59166;48.908;1.870;2022-08-19T04:36:37;10.60;;;4.90;;
71360;SDS011;59166;48.908;1.870;2022-08-19T04:41:40;9.90;;;5.27;;
71360;SDS011;59166;48.908;1.870;2022-08-19T04:46:41;9.85;;;4.95;;
71360;SDS011;59166;48.908;1.870;2022-08-19T04:51:42;9.93;;;5.10;;
71360;SDS011;59166;48.908;1.870;2022-08-19T04:56:47;10.02;;;5.10;;
71360;SDS011;59166;48.908;1.870;2022-08-19T05:01:48;9.75;;;4.88;;
71360;SDS011;59166;48.908;1.870;2022-08-19T05:06:49;10.43;;;4.60;;
71360;SDS011;59166;48.908;1.870;2022-08-19T05:11:51;9.70;;;4.78;;
71360;SDS011;59166;48.908;1.870;2022-08-19T05:16:52;10.15;;;4.55;;
71360;SDS011;59166;48.908;1.870;2022-08-19T05:21:52;9.83;;;4.70;;
71360;SDS011;59166;48.908;1.870;2022-08-19T05:26:55;9.65;;;4.60;;
71360;SDS011;59166;48.908;1.870;2022-08-19T05:31:57;8.73;;;4.17;;
71360;SDS011;59166;48.908;1.870;2022-08-19T05:36:58;8.43;;;4.20;;
71360;SDS011;59166;48.908;1.870;2022-08-19T05:42:03;9.52;;;3.90;;
71360;SDS011;59166;48.908;1.870;2022-08-19T05:47:06;10.43;;;3.80;;
71360;SDS011;59166;48.908;1.870;2022-08-19T05:52:08;9.45;;;4.35;;
71360;SDS011;59166;48.908;1.870;2022-08-19T05:57:11;11.10;;;3.65;;
71360;SDS011;59166;48.908;1.870;2022-08-19T06:02:12;8.43;;;3.53;;
71360;SDS011;59166;48.908;1.870;2022-08-19T06:07:13;7.43;;;3.17;;
71360;SDS011;59166;48.908;1.870;2022-08-19T06:12:15;7.67;;;3.07;;
71360;SDS011;59166;48.908;1.870;2022-08-19T06:17:15;7.40;;;2.90;;
71360;SDS011;59166;48.908;1.870;2022-08-19T06:22:16;6.27;;;2.53;;
71360;SDS011;59166;48.908;1.870;2022-08-19T06:27:18;7.45;;;2.60;;
71360;SDS011;59166;48.908;1.870;2022-08-19T06:32:19;7.90;;;2.70;;
71360;SDS011;59166;48.908;1.870;2022-08-19T06:37:20;6.23;;;2.60;;
71360;SDS011;59166;48.908;1.870;2022-08-19T06:42:22;7.83;;;2.50;;
71360;SDS011;59166;48.908;1.870;2022-08-19T06:47:22;8.48;;;2.60;;
71360;SDS011;59166;48.908;1.870;2022-08-19T06:52:23;6.80;;;2.57;;
71360;SDS011;59166;48.908;1.870;2022-08-19T06:57:25;7.13;;;2.40;;
71360;SDS011;59166;48.908;1.870;2022-08-19T07:02:26;7.65;;;2.55;;
71360;SDS011;59166;48.908;1.870;2022-08-19T07:07:27;6.97;;;2.37;;
71360;SDS011;59166;48.908;1.870;2022-08-19T07:12:29;6.72;;;2.35;;
71360;SDS011;59166;48.908;1.870;2022-08-19T07:17:31;6.53;;;2.40;;
71360;SDS011;59166;48.908;1.870;2022-08-19T07:22:32;6.18;;;2.40;;
71360;SDS011;59166;48.908;1.870;2022-08-19T07:27:34;6.13;;;2.47;;
71360;SDS011;59166;48.908;1.870;2022-08-19T07:32:35;5.50;;;2.10;;
71360;SDS011;59166;48.908;1.870;2022-08-19T07:37:35;6.73;;;2.30;;
71360;SDS011;59166;48.908;1.870;2022-08-19T07:42:38;6.18;;;2.13;;
71360;SDS011;59166;48.908;1.870;2022-08-19T07:47:38;6.33;;;2.20;;
71360;SDS011;59166;48.908;1.870;2022-08-19T07:52:39;5.03;;;2.10;;
71360;SDS011;59166;48.908;1.870;2022-08-19T07:57:42;6.83;;;2.23;;
71360;SDS011;59166;48.908;1.870;2022-08-19T08:02:42;7.07;;;2.10;;
71360;SDS011;59166;48.908;1.870;2022-08-19T08:07:43;6.97;;;1.73;;
71360;SDS011;59166;48.908;1.870;2022-08-19T08:12:45;6.35;;;1.80;;
71360;SDS011;59166;48.908;1.870;2022-08-19T08:17:46;7.33;;;1.90;;
71360;SDS011;59166;48.908;1.870;2022-08-19T08:22:46;7.70;;;1.90;;
71360;SDS011;59166;48.908;1.870;2022-08-19T08:27:49;5.57;;;1.60;;
71360;SDS011;59166;48.908;1.870;2022-08-19T08:32:50;5.70;;;1.70;;
71360;SDS011;59166;48.908;1.870;2022-08-19T08:37:52;8.75;;;1.80;;
71360;SDS011;59166;48.908;1.870;2022-08-19T08:42:57;4.50;;;1.43;;
71360;SDS011;59166;48.908;1.870;2022-08-19T08:48:03;6.55;;;1.30;;
71360;SDS011;59166;48.908;1.870;2022-08-19T08:53:17;4.75;;;1.50;;
71360;SDS011;59166;48.908;1.870;2022-08-19T08:58:24;4.40;;;1.50;;
71360;SDS011;59166;48.908;1.870;2022-08-19T09:03:28;5.37;;;1.80;;
71360;SDS011;59166;48.908;1.870;2022-08-19T09:08:33;4.65;;;1.70;;
71360;SDS011;59166;48.908;1.870;2022-08-19T09:13:44;5.47;;;1.73;;
71360;SDS011;59166;48.908;1.870;2022-08-19T09:19:01;6.05;;;1.55;;
71360;SDS011;59166;48.908;1.870;2022-08-19T09:24:04;5.18;;;1.70;;
71360;SDS011;59166;48.908;1.870;2022-08-19T09:29:06;5.20;;;1.60;;
71360;SDS011;59166;48.908;1.870;2022-08-19T09:34:07;4.20;;;1.40;;
71360;SDS011;59166;48.908;1.870;2022-08-19T09:39:08;5.65;;;1.70;;
71360;SDS011;59166;48.908;1.870;2022-08-19T09:44:10;4.77;;;1.50;;
71360;SDS011;59166;48.908;1.870;2022-08-19T09:49:10;4.40;;;1.70;;
71360;SDS011;59166;48.908;1.870;2022-08-19T09:54:11;3.27;;;1.40;;
71360;SDS011;59166;48.908;1.870;2022-08-19T09:59:13;4.13;;;1.53;;
71360;SDS011;59166;48.908;1.870;2022-08-19T10:04:14;4.07;;;1.50;;
71360;SDS011;59166;48.908;1.870;2022-08-19T10:09:15;5.03;;;1.70;;
71360;SDS011;59166;48.908;1.870;2022-08-19T10:14:18;4.97;;;1.60;;
71360;SDS011;59166;48.908;1.870;2022-08-19T10:19:19;7.20;;;1.52;;
71360;SDS011;59166;48.908;1.870;2022-08-19T10:24:19;2.63;;;1.27;;
71360;SDS011;59166;48.908;1.870;2022-08-19T10:29:21;3.60;;;1.30;;
71360;SDS011;59166;48.908;1.870;2022-08-19T10:34:22;3.45;;;1.27;;
71360;SDS011;59166;48.908;1.870;2022-08-19T10:39:23;3.40;;;1.37;;
71360;SDS011;59166;48.908;1.870;2022-08-19T10:44:25;4.33;;;1.50;;
71360;SDS011;59166;48.908;1.870;2022-08-19T10:49:26;3.92;;;1.20;;
71360;SDS011;59166;48.908;1.870;2022-08-19T10:54:27;3.70;;;1.20;;
71360;SDS011;59166;48.908;1.870;2022-08-19T10:59:29;4.15;;;1.30;;
71360;SDS011;59166;48.908;1.870;2022-08-19T11:04:30;5.00;;;1.73;;
71360;SDS011;59166;48.908;1.870;2022-08-19T11:09:31;4.18;;;1.40;;
71360;SDS011;59166;48.908;1.870;2022-08-19T11:14:37;4.53;;;1.50;;
71360;SDS011;59166;48.908;1.870;2022-08-19T11:19:38;4.65;;;1.50;;
71360;SDS011;59166;48.908;1.870;2022-08-19T11:24:38;4.87;;;1.60;;
71360;SDS011;59166;48.908;1.870;2022-08-19T11:29:40;5.43;;;1.67;;
71360;SDS011;59166;48.908;1.870;2022-08-19T11:34:41;4.83;;;1.60;;
71360;SDS011;59166;48.908;1.870;2022-08-19T11:39:41;5.80;;;1.55;;
71360;SDS011;59166;48.908;1.870;2022-08-19T11:44:43;4.37;;;1.70;;
71360;SDS011;59166;48.908;1.870;2022-08-19T11:49:45;9.13;;;1.60;;
71360;SDS011;59166;48.908;1.870;2022-08-19T11:54:46;5.60;;;1.60;;
71360;SDS011;59166;48.908;1.870;2022-08-19T11:59:49;5.63;;;1.60;;
71360;SDS011;59166;48.908;1.870;2022-08-19T12:04:50;4.55;;;1.60;;
71360;SDS011;59166;48.908;1.870;2022-08-19T12:09:51;7.00;;;1.77;;
71360;SDS011;59166;48.908;1.870;2022-08-19T12:14:53;6.33;;;1.57;;
71360;SDS011;59166;48.908;1.870;2022-08-19T12:19:54;4.97;;;1.50;;
71360;SDS011;59166;48.908;1.870;2022-08-19T12:24:54;4.33;;;1.70;;
71360;SDS011;59166;48.908;1.870;2022-08-19T12:29:56;3.85;;;1.58;;
71360;SDS011;59166;48.908;1.870;2022-08-19T12:34:57;5.67;;;1.60;;
71360;SDS011;59166;48.908;1.870;2022-08-19T12:39:58;4.93;;;1.40;;
71360;SDS011;59166;48.908;1.870;2022-08-19T12:45:00;4.27;;;1.47;;
71360;SDS011;59166;48.908;1.870;2022-08-19T12:50:01;3.90;;;1.30;;
71360;SDS011;59166;48.908;1.870;2022-08-19T12:55:01;4.30;;;1.50;;
71360;SDS011;59166;48.908;1.870;2022-08-19T13:00:07;4.60;;;1.30;;
71360;SDS011;59166;48.908;1.870;2022-08-19T13:05:10;5.03;;;1.33;;
71360;SDS011;59166;48.908;1.870;2022-08-19T13:10:13;5.80;;;1.33;;
71360;SDS011;59166;48.908;1.870;2022-08-19T13:15:18;3.42;;;1.30;;
71360;SDS011;59166;48.908;1.870;2022-08-19T13:20:20;3.78;;;1.30;;
71360;SDS011;59166;48.908;1.870;2022-08-19T13:25:22;4.90;;;1.37;;
71360;SDS011;59166;48.908;1.870;2022-08-19T13:30:24;5.15;;;1.50;;
71360;SDS011;59166;48.908;1.870;2022-08-19T13:35:25;4.00;;;1.40;;
71360;SDS011;59166;48.908;1.870;2022-08-19T13:40:26;4.97;;;1.50;;
71360;SDS011;59166;48.908;1.870;2022-08-19T13:45:29;3.10;;;1.40;;
71360;SDS011;59166;48.908;1.870;2022-08-19T13:50:30;5.27;;;1.37;;
71360;SDS011;59166;48.908;1.870;2022-08-19T13:55:31;4.25;;;1.40;;
71360;SDS011;59166;48.908;1.870;2022-08-19T14:00:34;3.97;;;1.30;;
71360;SDS011;59166;48.908;1.870;2022-08-19T14:05:36;4.32;;;1.38;;
71360;SDS011;59166;48.908;1.870;2022-08-19T14:10:37;4.30;;;1.40;;
71360;SDS011;59166;48.908;1.870;2022-08-19T14:15:39;3.87;;;1.50;;
71360;SDS011;59166;48.908;1.870;2022-08-19T14:20:40;3.35;;;1.48;;
71360;SDS011;59166;48.908;1.870;2022-08-19T14:25:41;3.87;;;1.23;;
71360;SDS011;59166;48.908;1.870;2022-08-19T14:30:44;3.38;;;1.20;;
71360;SDS011;59166;48.908;1.870;2022-08-19T14:35:44;5.40;;;1.40;;
71360;SDS011;59166;48.908;1.870;2022-08-19T14:40:45;4.10;;;1.20;;
71360;SDS011;59166;48.908;1.870;2022-08-19T14:45:47;3.73;;;1.20;;
71360;SDS011;59166;48.908;1.870;2022-08-19T14:50:48;3.38;;;1.20;;
71360;SDS011;59166;48.908;1.870;2022-08-19T14:55:48;3.83;;;1.30;;
71360;SDS011;59166;48.908;1.870;2022-08-19T15:00:50;7.93;;;1.25;;
71360;SDS011;59166;48.908;1.870;2022-08-19T15:05:51;5.27;;;1.40;;
71360;SDS011;59166;48.908;1.870;2022-08-19T15:10:51;4.82;;;1.30;;
71360;SDS011;59166;48.908;1.870;2022-08-19T15:15:54;3.93;;;1.30;;
71360;SDS011;59166;48.908;1.870;2022-08-19T15:20:56;2.97;;;1.20;;
71360;SDS011;59166;48.908;1.870;2022-08-19T15:25:56;3.67;;;1.15;;
71360;SDS011;59166;48.908;1.870;2022-08-19T15:30:58;4.00;;;1.30;;
71360;SDS011;59166;48.908;1.870;2022-08-19T15:35:59;3.55;;;1.30;;
71360;SDS011;59166;48.908;1.870;2022-08-19T15:41:00;4.63;;;1.23;;
71360;SDS011;59166;48.908;1.870;2022-08-19T15:46:03;3.05;;;1.30;;
71360;SDS011;59166;48.908;1.870;2022-08-19T15:51:04;4.10;;;1.17;;
71360;SDS011;59166;48.908;1.870;2022-08-19T15:56:05;3.03;;;1.10;;
71360;SDS011;59166;48.908;1.870;2022-08-19T16:01:07;2.23;;;1.10;;
71360;SDS011;59166;48.908;1.870;2022-08-19T16:06:08;2.97;;;1.20;;
71360;SDS011;59166;48.908;1.870;2022-08-19T16:11:10;3.65;;;1.17;;
71360;SDS011;59166;48.908;1.870;2022-08-19T16:16:12;3.00;;;1.00;;
71360;SDS011;59166;48.908;1.870;2022-08-19T16:21:13;2.22;;;0.93;;
71360;SDS011;59166;48.908;1.870;2022-08-19T16:26:14;2.47;;;1.10;;
71360;SDS011;59166;48.908;1.870;2022-08-19T16:31:17;2.78;;;1.00;;
71360;SDS011;59166;48.908;1.870;2022-08-19T16:36:17;2.85;;;1.00;;
71360;SDS011;59166;48.908;1.870;2022-08-19T16:41:18;2.13;;;1.00;;
71360;SDS011;59166;48.908;1.870;2022-08-19T16:46:21;3.55;;;1.20;;
71360;SDS011;59166;48.908;1.870;2022-08-19T16:51:22;4.13;;;1.17;;
71360;SDS011;59166;48.908;1.870;2022-08-19T16:56:23;3.43;;;1.23;;
71360;SDS011;59166;48.908;1.870;2022-08-19T17:01:25;5.03;;;1.30;;
71360;SDS011;59166;48.908;1.870;2022-08-19T17:06:27;3.60;;;1.40;;
71360;SDS011;59166;48.908;1.870;2022-08-19T17:11:29;4.55;;;1.50;;
71360;SDS011;59166;48.908;1.870;2022-08-19T17:16:32;5.00;;;1.60;;
71360;SDS011;59166;48.908;1.870;2022-08-19T17:21:35;4.55;;;1.80;;
71360;SDS011;59166;48.908;1.870;2022-08-19T17:26:36;5.30;;;1.73;;
71360;SDS011;59166;48.908;1.870;2022-08-19T17:31:38;5.97;;;1.57;;
71360;SDS011;59166;48.908;1.870;2022-08-19T17:36:39;3.95;;;1.38;;
71360;SDS011;59166;48.908;1.870;2022-08-19T17:41:40;5.93;;;1.40;;
71360;SDS011;59166;48.908;1.870;2022-08-19T17:46:42;3.50;;;1.33;;
71360;SDS011;59166;48.908;1.870;2022-08-19T17:51:43;4.43;;;1.50;;
71360;SDS011;59166;48.908;1.870;2022-08-19T17:56:45;4.68;;;1.83;;
71360;SDS011;59166;48.908;1.870;2022-08-19T18:01:48;5.30;;;2.00;;
71360;SDS011;59166;48.908;1.870;2022-08-19T18:06:49;10.38;;;2.30;;
71360;SDS011;59166;48.908;1.870;2022-08-19T18:11:50;8.83;;;3.30;;
71360;SDS011;59166;48.908;1.870;2022-08-19T18:16:53;5.50;;;1.90;;
71360;SDS011;59166;48.908;1.870;2022-08-19T18:21:54;4.22;;;1.40;;
71360;SDS011;59166;48.908;1.870;2022-08-19T18:26:54;2.70;;;1.10;;
71360;SDS011;59166;48.908;1.870;2022-08-19T18:31:56;3.60;;;1.00;;
71360;SDS011;59166;48.908;1.870;2022-08-19T18:36:57;2.38;;;1.00;;
71360;SDS011;59166;48.908;1.870;2022-08-19T18:41:57;3.17;;;1.00;;
71360;SDS011;59166;48.908;1.870;2022-08-19T18:46:59;2.35;;;0.85;;
71360;SDS011;59166;48.908;1.870;2022-08-19T18:52:00;3.07;;;1.10;;
71360;SDS011;59166;48.908;1.870;2022-08-19T18:57:01;3.72;;;0.98;;
71360;SDS011;59166;48.908;1.870;2022-08-19T19:02:03;3.27;;;1.00;;
71360;SDS011;59166;48.908;1.870;2022-08-19T19:07:04;4.60;;;1.02;;
71360;SDS011;59166;48.908;1.870;2022-08-19T19:12:07;3.90;;;1.20;;
71360;SDS011;59166;48.908;1.870;2022-08-19T19:17:12;3.83;;;1.20;;
71360;SDS011;59166;48.908;1.870;2022-08-19T19:22:16;3.03;;;1.20;;
71360;SDS011;59166;48.908;1.870;2022-08-19T19:27:19;4.70;;;1.10;;
71360;SDS011;59166;48.908;1.870;2022-08-19T19:32:22;5.40;;;1.30;;
71360;SDS011;59166;48.908;1.870;2022-08-19T19:37:24;4.68;;;1.50;;
71360;SDS011;59166;48.908;1.870;2022-08-19T19:42:25;3.70;;;1.40;;
71360;SDS011;59166;48.908;1.870;2022-08-19T19:47:27;5.00;;;1.65;;
71360;SDS011;59166;48.908;1.870;2022-08-19T19:52:28;4.87;;;1.50;;
71360;SDS011;59166;48.908;1.870;2022-08-19T19:57:28;5.30;;;1.58;;
71360;SDS011;59166;48.908;1.870;2022-08-19T20:02:30;5.40;;;1.60;;
71360;SDS011;59166;48.908;1.870;2022-08-19T20:07:31;5.18;;;1.80;;
71360;SDS011;59166;48.908;1.870;2022-08-19T20:12:32;7.70;;;1.90;;
71360;SDS011;59166;48.908;1.870;2022-08-19T20:17:34;5.55;;;1.90;;
71360;SDS011;59166;48.908;1.870;2022-08-19T20:22:36;6.17;;;1.83;;
71360;SDS011;59166;48.908;1.870;2022-08-19T20:27:37;5.40;;;1.88;;
71360;SDS011;59166;48.908;1.870;2022-08-19T20:32:39;8.15;;;1.85;;
71360;SDS011;59166;48.908;1.870;2022-08-19T20:37:40;6.73;;;2.00;;
71360;SDS011;59166;48.908;1.870;2022-08-19T20:42:42;7.20;;;1.80;;
71360;SDS011;59166;48.908;1.870;2022-08-19T20:47:44;6.27;;;2.00;;
71360;SDS011;59166;48.908;1.870;2022-08-19T20:52:44;6.73;;;1.90;;
71360;SDS011;59166;48.908;1.870;2022-08-19T20:57:45;5.93;;;1.80;;
71360;SDS011;59166;48.908;1.870;2022-08-19T21:02:47;6.17;;;1.73;;
71360;SDS011;59166;48.908;1.870;2022-08-19T21:07:48;7.33;;;2.03;;
71360;SDS011;59166;48.908;1.870;2022-08-19T21:12:48;6.50;;;1.83;;
71360;SDS011;59166;48.908;1.870;2022-08-19T21:17:50;8.50;;;1.90;;
71360;SDS011;59166;48.908;1.870;2022-08-19T21:22:51;7.57;;;1.70;;
71360;SDS011;59166;48.908;1.870;2022-08-19T21:27:52;8.07;;;2.10;;
71360;SDS011;59166;48.908;1.870;2022-08-19T21:32:54;8.40;;;1.98;;
71360;SDS011;59166;48.908;1.870;2022-08-19T21:37:55;6.43;;;1.97;;
71360;SDS011;59166;48.908;1.870;2022-08-19T21:42:55;6.53;;;2.00;;
71360;SDS011;59166;48.908;1.870;2022-08-19T21:47:58;8.00;;;2.07;;
71360;SDS011;59166;48.908;1.870;2022-08-19T21:52:58;6.28;;;1.75;;
71360;SDS011;59166;48.908;1.870;2022-08-19T21:57:59;7.10;;;2.17;;
71360;SDS011;59166;48.908;1.870;2022-08-19T22:03:02;8.05;;;2.08;;
71360;SDS011;59166;48.908;1.870;2022-08-19T22:08:03;10.13;;;2.20;;
71360;SDS011;59166;48.908;1.870;2022-08-19T22:13:04;10.00;;;2.40;;
71360;SDS011;59166;48.908;1.870;2022-08-19T22:18:06;8.63;;;2.10;;
71360;SDS011;59166;48.908;1.870;2022-08-19T22:23:06;10.10;;;2.38;;
71360;SDS011;59166;48.908;1.870;2022-08-19T22:28:08;7.47;;;2.40;;
71360;SDS011;59166;48.908;1.870;2022-08-19T22:33:12;8.88;;;2.47;;
71360;SDS011;59166;48.908;1.870;2022-08-19T22:38:14;8.30;;;2.15;;
71360;SDS011;59166;48.908;1.870;2022-08-19T22:43:16;10.90;;;2.50;;
71360;SDS011;59166;48.908;1.870;2022-08-19T22:48:19;8.15;;;2.20;;
71360;SDS011;59166;48.908;1.870;2022-08-19T22:53:22;9.73;;;2.40;;
71360;SDS011;59166;48.908;1.870;2022-08-19T22:58:23;9.40;;;2.20;;
71360;SDS011;59166;48.908;1.870;2022-08-19T23:03:25;8.67;;;2.57;;
71360;SDS011;59166;48.908;1.870;2022-08-19T23:08:26;10.52;;;2.42;;
71360;SDS011;59166;48.908;1.870;2022-08-19T23:13:27;9.82;;;2.30;;
71360;SDS011;59166;48.908;1.870;2022-08-19T23:18:29;8.77;;;2.33;;
71360;SDS011;59166;48.908;1.870;2022-08-19T23:23:30;8.67;;;2.37;;
71360;SDS011;59166;48.908;1.870;2022-08-19T23:28:30;9.73;;;2.20;;
71360;SDS011;59166;48.908;1.870;2022-08-19T23:33:33;8.93;;;2.20;;
71360;SDS011;59166;48.908;1.870;2022-08-19T23:38:36;9.88;;;2.60;;
71360;SDS011;59166;48.908;1.870;2022-08-19T23:43:39;9.80;;;2.60;;
71360;SDS011;59166;48.908;1.870;2022-08-19T23:48:42;10.10;;;2.77;;
71360;SDS011;59166;48.908;1.870;2022-08-19T23:53:43;10.48;;;2.83;;
71360;SDS011;59166;48.908;1.870;2022-08-19T23:58:44;11.50;;;3.17;;
